Terminal Aerodrome Forecast
Issued by NWS

Home | Current Version | Previous Version | Graphics & Text | Print | Product List | Glossary On
Versions: 1 2 3 4 5 6 7 8 9 10 11 12 13 14 15 16 17 18 19 20 21 22 23 24 25 26 27 28 29 30
000
FTUS43 KBIS 241709 AAA
TAFMOT
TAF AMD
KMOT 241709Z 2417/2512 20012G18KT P6SM SCT090
     FM250500 02004KT P6SM BKN130=

USA.gov is the U.S. government's official web portal to all federal, state and local government web resources and services.